Cranford, NJ

5:54 AM EDT on September 29, 2016 (GMT -0400)
Hickory Hollow | | Change Station

Elev 79 ft 40.65 °N, 74.30 °W | Updated 44 seconds ago

Overcast
Overcast
59.0 °F
Feels Like 59.0 °F
N
2.0
Wind Variable Wind from NNW

Today
High -- | Low -- °F
--% Chance of Precip.
Yesterday
High -- | Low -- °F
Precip. -- in
Pressure 30.30 in
Visibility 10.0 miles
Clouds Overcast 1800 ft
Dew Point 55 °F
Humidity 86%
Rainfall 0.00 in
Snow Depth Not available.
6:52 AM 6:41 PM
Waning Crescent, 2% visible
METAR KEWR 290951Z 06010G19KT 10SM OVC018 17/13 A3029 RMK AO2 SLP258 T01670128
Pressure 30.30 in
Visibility 10.0 miles
Clouds Overcast 1800 ft
Dew Point 55 °F
Humidity 86%
Rainfall 0.00 in
Snow Depth Not available.
6:52 AM 6:41 PM
Waning Crescent, 2% visible
METAR KEWR 290951Z 06010G19KT 10SM OVC018 17/13 A3029 RMK AO2 SLP258 T01670128

10-Day Weather Forecast

Almanac

Astronomy

Sep. 29, 2016 Rise Set
Actual Time
Civil Twilight
Nautical Twilight
Astronomical Twilight
Moon
Length of Visible Light
Length of Day
Tomorrow will be .
, % of the Moon is Illuminated

Today's Extremes

State Highs State Lows

Community

WunderPhotos

Upload Photos

1,942,446 photos uploaded!

WunderBlog® & News

Nearby

Air Quality

  Air Quality AQ Index Pollutant
Not available.

Snow Depth

Station Depth Elevation

Earthquake Activity

City Distance Mag. Time & Date
Minimum magnitude displayed is 2.5.

Coastal Water Temperatures

Place Temperature

Stations

Nearby Weather Stations

Station Location Temp. Windchill Dew Point Humidity Wind Precip. Elev Updated Type
                   

Watches & Warnings

There are currently no watches in effect.